sensor_id;sensor_type;location;lat;lon;timestamp;P1;durP1;ratioP1;P2;durP2;ratioP2
54197;SDS011;40105;52.366;17.000;2023-02-20T00:02:12;12.80;;;3.00;;
54197;SDS011;40105;52.366;17.000;2023-02-20T00:04:38;6.87;;;2.60;;
54197;SDS011;40105;52.366;17.000;2023-02-20T00:07:03;15.23;;;3.30;;
54197;SDS011;40105;52.366;17.000;2023-02-20T00:09:28;6.80;;;2.13;;
54197;SDS011;40105;52.366;17.000;2023-02-20T00:11:53;11.37;;;2.90;;
54197;SDS011;40105;52.366;17.000;2023-02-20T00:14:18;8.37;;;3.40;;
54197;SDS011;40105;52.366;17.000;2023-02-20T00:16:45;12.37;;;2.30;;
54197;SDS011;40105;52.366;17.000;2023-02-20T00:19:10;6.35;;;2.50;;
54197;SDS011;40105;52.366;17.000;2023-02-20T00:21:35;17.43;;;3.43;;
54197;SDS011;40105;52.366;17.000;2023-02-20T00:24:01;10.60;;;2.47;;
54197;SDS011;40105;52.366;17.000;2023-02-20T00:26:26;13.87;;;2.63;;
54197;SDS011;40105;52.366;17.000;2023-02-20T00:28:51;16.08;;;2.78;;
54197;SDS011;40105;52.366;17.000;2023-02-20T00:31:16;9.23;;;2.47;;
54197;SDS011;40105;52.366;17.000;2023-02-20T00:33:44;11.52;;;2.60;;
54197;SDS011;40105;52.366;17.000;2023-02-20T00:36:13;9.43;;;3.08;;
54197;SDS011;40105;52.366;17.000;2023-02-20T00:38:39;11.30;;;2.45;;
54197;SDS011;40105;52.366;17.000;2023-02-20T00:41:05;7.25;;;2.78;;
54197;SDS011;40105;52.366;17.000;2023-02-20T00:43:31;5.72;;;2.13;;
54197;SDS011;40105;52.366;17.000;2023-02-20T00:46:00;7.18;;;2.40;;
54197;SDS011;40105;52.366;17.000;2023-02-20T00:48:25;10.32;;;3.08;;
54197;SDS011;40105;52.366;17.000;2023-02-20T00:50:50;17.30;;;2.55;;
54197;SDS011;40105;52.366;17.000;2023-02-20T00:53:15;8.57;;;2.77;;
54197;SDS011;40105;52.366;17.000;2023-02-20T00:55:40;12.33;;;3.33;;
54197;SDS011;40105;52.366;17.000;2023-02-20T00:58:05;10.80;;;2.78;;
54197;SDS011;40105;52.366;17.000;2023-02-20T01:00:31;17.40;;;3.10;;
54197;SDS011;40105;52.366;17.000;2023-02-20T01:02:56;12.10;;;2.70;;
54197;SDS011;40105;52.366;17.000;2023-02-20T01:05:21;10.93;;;3.67;;
54197;SDS011;40105;52.366;17.000;2023-02-20T01:07:46;14.63;;;2.40;;
54197;SDS011;40105;52.366;17.000;2023-02-20T01:10:12;13.63;;;2.08;;
54197;SDS011;40105;52.366;17.000;2023-02-20T01:12:37;7.93;;;2.88;;
54197;SDS011;40105;52.366;17.000;2023-02-20T01:15:03;7.87;;;2.67;;
54197;SDS011;40105;52.366;17.000;2023-02-20T01:17:28;8.95;;;2.45;;
54197;SDS011;40105;52.366;17.000;2023-02-20T01:19:53;10.27;;;2.87;;
54197;SDS011;40105;52.366;17.000;2023-02-20T01:22:19;5.18;;;1.95;;
54197;SDS011;40105;52.366;17.000;2023-02-20T01:24:45;9.07;;;2.33;;
54197;SDS011;40105;52.366;17.000;2023-02-20T01:27:10;15.47;;;3.20;;
54197;SDS011;40105;52.366;17.000;2023-02-20T01:29:35;19.67;;;2.50;;
54197;SDS011;40105;52.366;17.000;2023-02-20T01:32:00;7.10;;;1.87;;
54197;SDS011;40105;52.366;17.000;2023-02-20T01:34:25;12.47;;;3.00;;
54197;SDS011;40105;52.366;17.000;2023-02-20T01:36:52;4.87;;;2.30;;
54197;SDS011;40105;52.366;17.000;2023-02-20T01:39:18;16.20;;;3.45;;
54197;SDS011;40105;52.366;17.000;2023-02-20T01:41:45;5.15;;;2.13;;
54197;SDS011;40105;52.366;17.000;2023-02-20T01:44:21;13.57;;;2.67;;
54197;SDS011;40105;52.366;17.000;2023-02-20T01:46:48;7.15;;;2.22;;
54197;SDS011;40105;52.366;17.000;2023-02-20T01:49:16;15.98;;;2.63;;
54197;SDS011;40105;52.366;17.000;2023-02-20T01:51:43;13.15;;;2.92;;
54197;SDS011;40105;52.366;17.000;2023-02-20T01:54:10;12.75;;;2.97;;
54197;SDS011;40105;52.366;17.000;2023-02-20T01:56:38;9.20;;;2.42;;
54197;SDS011;40105;52.366;17.000;2023-02-20T01:59:03;12.07;;;2.53;;
54197;SDS011;40105;52.366;17.000;2023-02-20T02:01:31;10.20;;;2.88;;
54197;SDS011;40105;52.366;17.000;2023-02-20T02:03:57;12.60;;;3.63;;
54197;SDS011;40105;52.366;17.000;2023-02-20T02:06:23;8.80;;;3.25;;
54197;SDS011;40105;52.366;17.000;2023-02-20T02:08:49;14.85;;;3.42;;
54197;SDS011;40105;52.366;17.000;2023-02-20T02:11:16;9.40;;;2.90;;
54197;SDS011;40105;52.366;17.000;2023-02-20T02:13:43;16.42;;;2.88;;
54197;SDS011;40105;52.366;17.000;2023-02-20T02:21:34;13.50;;;3.75;;
54197;SDS011;40105;52.366;17.000;2023-02-20T02:24:09;6.22;;;2.28;;
54197;SDS011;40105;52.366;17.000;2023-02-20T02:29:18;8.93;;;2.60;;
54197;SDS011;40105;52.366;17.000;2023-02-20T02:44:50;12.88;;;2.90;;
54197;SDS011;40105;52.366;17.000;2023-02-20T02:47:21;12.60;;;3.17;;
54197;SDS011;40105;52.366;17.000;2023-02-20T02:50:00;9.73;;;3.00;;
54197;SDS011;40105;52.366;17.000;2023-02-20T02:52:26;4.90;;;2.55;;
54197;SDS011;40105;52.366;17.000;2023-02-20T02:55:12;15.65;;;3.00;;
54197;SDS011;40105;52.366;17.000;2023-02-20T02:57:39;18.45;;;3.28;;
54197;SDS011;40105;52.366;17.000;2023-02-20T03:00:09;17.10;;;3.00;;
54197;SDS011;40105;52.366;17.000;2023-02-20T03:02:37;12.45;;;2.75;;
54197;SDS011;40105;52.366;17.000;2023-02-20T03:05:04;6.95;;;2.70;;
54197;SDS011;40105;52.366;17.000;2023-02-20T03:07:31;6.90;;;2.13;;
54197;SDS011;40105;52.366;17.000;2023-02-20T03:10:01;8.43;;;2.53;;
54197;SDS011;40105;52.366;17.000;2023-02-20T03:12:27;28.58;;;3.35;;
54197;SDS011;40105;52.366;17.000;2023-02-20T03:14:56;16.17;;;2.72;;
54197;SDS011;40105;52.366;17.000;2023-02-20T03:17:50;6.22;;;1.55;;
54197;SDS011;40105;52.366;17.000;2023-02-20T03:20:17;7.68;;;2.85;;
54197;SDS011;40105;52.366;17.000;2023-02-20T03:22:47;10.20;;;1.88;;
54197;SDS011;40105;52.366;17.000;2023-02-20T03:30:14;8.27;;;2.65;;
54197;SDS011;40105;52.366;17.000;2023-02-20T03:32:41;4.20;;;1.65;;
54197;SDS011;40105;52.366;17.000;2023-02-20T03:35:26;6.47;;;2.15;;
54197;SDS011;40105;52.366;17.000;2023-02-20T03:38:11;10.10;;;1.95;;
54197;SDS011;40105;52.366;17.000;2023-02-20T03:40:56;7.07;;;2.25;;
54197;SDS011;40105;52.366;17.000;2023-02-20T03:43:41;6.78;;;2.38;;
54197;SDS011;40105;52.366;17.000;2023-02-20T03:46:08;4.05;;;1.98;;
54197;SDS011;40105;52.366;17.000;2023-02-20T03:48:42;4.85;;;2.17;;
54197;SDS011;40105;52.366;17.000;2023-02-20T03:51:09;7.53;;;2.10;;
54197;SDS011;40105;52.366;17.000;2023-02-20T03:53:35;7.05;;;2.55;;
54197;SDS011;40105;52.366;17.000;2023-02-20T03:56:01;6.05;;;2.03;;
54197;SDS011;40105;52.366;17.000;2023-02-20T03:58:28;8.65;;;2.10;;
54197;SDS011;40105;52.366;17.000;2023-02-20T04:00:55;8.95;;;2.25;;
54197;SDS011;40105;52.366;17.000;2023-02-20T04:03:24;9.32;;;2.92;;
54197;SDS011;40105;52.366;17.000;2023-02-20T04:05:51;8.82;;;3.58;;
54197;SDS011;40105;52.366;17.000;2023-02-20T04:10:44;8.67;;;2.30;;
54197;SDS011;40105;52.366;17.000;2023-02-20T04:13:11;15.40;;;4.30;;
54197;SDS011;40105;52.366;17.000;2023-02-20T04:15:37;7.82;;;2.67;;
54197;SDS011;40105;52.366;17.000;2023-02-20T04:18:04;7.40;;;2.17;;
54197;SDS011;40105;52.366;17.000;2023-02-20T04:20:30;2.85;;;1.92;;
54197;SDS011;40105;52.366;17.000;2023-02-20T04:22:56;6.67;;;1.83;;
54197;SDS011;40105;52.366;17.000;2023-02-20T04:25:30;18.08;;;2.97;;
54197;SDS011;40105;52.366;17.000;2023-02-20T04:27:59;13.30;;;2.90;;
54197;SDS011;40105;52.366;17.000;2023-02-20T04:30:24;13.73;;;2.65;;
54197;SDS011;40105;52.366;17.000;2023-02-20T04:32:50;7.90;;;2.53;;
54197;SDS011;40105;52.366;17.000;2023-02-20T04:35:16;7.97;;;2.87;;
54197;SDS011;40105;52.366;17.000;2023-02-20T04:37:42;5.43;;;2.10;;
54197;SDS011;40105;52.366;17.000;2023-02-20T04:40:07;18.43;;;2.60;;
54197;SDS011;40105;52.366;17.000;2023-02-20T04:42:33;8.38;;;3.03;;
54197;SDS011;40105;52.366;17.000;2023-02-20T04:44:58;4.90;;;2.17;;
54197;SDS011;40105;52.366;17.000;2023-02-20T04:47:23;7.27;;;1.80;;
54197;SDS011;40105;52.366;17.000;2023-02-20T04:49:48;7.55;;;2.30;;
54197;SDS011;40105;52.366;17.000;2023-02-20T04:52:13;16.53;;;2.80;;
54197;SDS011;40105;52.366;17.000;2023-02-20T04:54:39;10.00;;;3.10;;
54197;SDS011;40105;52.366;17.000;2023-02-20T04:57:04;14.97;;;3.33;;
54197;SDS011;40105;52.366;17.000;2023-02-20T04:59:29;14.60;;;3.30;;
54197;SDS011;40105;52.366;17.000;2023-02-20T05:01:54;12.87;;;3.27;;
54197;SDS011;40105;52.366;17.000;2023-02-20T05:04:20;15.95;;;3.38;;
54197;SDS011;40105;52.366;17.000;2023-02-20T05:06:47;10.50;;;3.00;;
54197;SDS011;40105;52.366;17.000;2023-02-20T05:09:12;8.35;;;2.65;;
54197;SDS011;40105;52.366;17.000;2023-02-20T05:11:38;8.88;;;2.28;;
54197;SDS011;40105;52.366;17.000;2023-02-20T05:14:04;8.48;;;3.42;;
54197;SDS011;40105;52.366;17.000;2023-02-20T05:16:29;10.27;;;2.87;;
54197;SDS011;40105;52.366;17.000;2023-02-20T05:18:54;12.97;;;2.53;;
54197;SDS011;40105;52.366;17.000;2023-02-20T05:21:19;14.60;;;4.77;;
54197;SDS011;40105;52.366;17.000;2023-02-20T05:24:04;7.97;;;3.70;;
54197;SDS011;40105;52.366;17.000;2023-02-20T05:26:29;10.55;;;4.05;;
54197;SDS011;40105;52.366;17.000;2023-02-20T05:28:54;10.83;;;3.63;;
54197;SDS011;40105;52.366;17.000;2023-02-20T05:31:19;12.05;;;4.80;;
54197;SDS011;40105;52.366;17.000;2023-02-20T05:33:45;11.30;;;3.83;;
54197;SDS011;40105;52.366;17.000;2023-02-20T05:36:10;14.87;;;5.47;;
54197;SDS011;40105;52.366;17.000;2023-02-20T05:38:35;20.30;;;7.87;;
54197;SDS011;40105;52.366;17.000;2023-02-20T05:41:00;16.30;;;5.73;;
54197;SDS011;40105;52.366;17.000;2023-02-20T05:43:25;10.03;;;4.63;;
54197;SDS011;40105;52.366;17.000;2023-02-20T05:45:51;21.60;;;5.90;;
54197;SDS011;40105;52.366;17.000;2023-02-20T05:48:16;21.77;;;10.60;;
54197;SDS011;40105;52.366;17.000;2023-02-20T05:50:41;12.07;;;5.97;;
54197;SDS011;40105;52.366;17.000;2023-02-20T05:53:06;21.60;;;7.33;;
54197;SDS011;40105;52.366;17.000;2023-02-20T05:55:31;13.63;;;5.93;;
54197;SDS011;40105;52.366;17.000;2023-02-20T05:57:57;14.97;;;5.27;;
54197;SDS011;40105;52.366;17.000;2023-02-20T06:00:22;12.00;;;4.50;;
54197;SDS011;40105;52.366;17.000;2023-02-20T06:02:47;16.60;;;6.18;;
54197;SDS011;40105;52.366;17.000;2023-02-20T06:05:13;14.05;;;6.15;;
54197;SDS011;40105;52.366;17.000;2023-02-20T06:07:38;10.10;;;3.92;;
54197;SDS011;40105;52.366;17.000;2023-02-20T06:10:03;21.57;;;4.87;;
54197;SDS011;40105;52.366;17.000;2023-02-20T06:12:28;13.13;;;5.28;;
54197;SDS011;40105;52.366;17.000;2023-02-20T06:14:53;15.50;;;5.50;;
54197;SDS011;40105;52.366;17.000;2023-02-20T06:17:19;12.77;;;4.88;;
54197;SDS011;40105;52.366;17.000;2023-02-20T06:19:44;15.30;;;4.85;;
54197;SDS011;40105;52.366;17.000;2023-02-20T06:22:10;11.47;;;5.37;;
54197;SDS011;40105;52.366;17.000;2023-02-20T06:24:35;15.10;;;5.33;;
54197;SDS011;40105;52.366;17.000;2023-02-20T06:27:00;12.20;;;5.05;;
54197;SDS011;40105;52.366;17.000;2023-02-20T06:29:25;19.07;;;7.17;;
54197;SDS011;40105;52.366;17.000;2023-02-20T06:31:50;11.95;;;4.78;;
54197;SDS011;40105;52.366;17.000;2023-02-20T06:34:16;13.37;;;5.00;;
54197;SDS011;40105;52.366;17.000;2023-02-20T06:36:41;17.90;;;5.50;;
54197;SDS011;40105;52.366;17.000;2023-02-20T06:39:08;16.52;;;5.45;;
54197;SDS011;40105;52.366;17.000;2023-02-20T06:41:33;16.20;;;5.78;;
54197;SDS011;40105;52.366;17.000;2023-02-20T06:43:58;10.68;;;4.40;;
54197;SDS011;40105;52.366;17.000;2023-02-20T06:46:24;11.35;;;5.50;;
54197;SDS011;40105;52.366;17.000;2023-02-20T06:48:50;14.87;;;6.37;;
54197;SDS011;40105;52.366;17.000;2023-02-20T06:51:16;10.60;;;5.65;;
54197;SDS011;40105;52.366;17.000;2023-02-20T06:53:42;10.50;;;5.25;;
54197;SDS011;40105;52.366;17.000;2023-02-20T06:56:08;14.97;;;5.03;;
54197;SDS011;40105;52.366;17.000;2023-02-20T06:58:33;15.90;;;5.55;;
54197;SDS011;40105;52.366;17.000;2023-02-20T07:00:59;9.95;;;4.00;;
54197;SDS011;40105;52.366;17.000;2023-02-20T07:03:24;10.57;;;4.83;;
54197;SDS011;40105;52.366;17.000;2023-02-20T07:05:49;17.37;;;6.03;;
54197;SDS011;40105;52.366;17.000;2023-02-20T07:08:14;20.87;;;7.03;;
54197;SDS011;40105;52.366;17.000;2023-02-20T07:10:39;21.13;;;7.47;;
54197;SDS011;40105;52.366;17.000;2023-02-20T07:13:05;15.07;;;6.43;;
54197;SDS011;40105;52.366;17.000;2023-02-20T07:15:30;14.63;;;5.93;;
54197;SDS011;40105;52.366;17.000;2023-02-20T07:17:55;14.43;;;6.43;;
54197;SDS011;40105;52.366;17.000;2023-02-20T07:20:20;16.57;;;5.57;;
54197;SDS011;40105;52.366;17.000;2023-02-20T07:22:52;12.87;;;4.97;;
54197;SDS011;40105;52.366;17.000;2023-02-20T07:25:18;17.50;;;6.22;;
54197;SDS011;40105;52.366;17.000;2023-02-20T07:27:43;23.40;;;7.10;;
54197;SDS011;40105;52.366;17.000;2023-02-20T07:30:09;13.10;;;6.23;;
54197;SDS011;40105;52.366;17.000;2023-02-20T07:32:34;15.23;;;5.22;;
54197;SDS011;40105;52.366;17.000;2023-02-20T07:34:59;12.50;;;6.15;;
54197;SDS011;40105;52.366;17.000;2023-02-20T07:37:24;27.70;;;5.17;;
54197;SDS011;40105;52.366;17.000;2023-02-20T07:39:50;16.53;;;5.23;;
54197;SDS011;40105;52.366;17.000;2023-02-20T07:42:17;18.80;;;6.17;;
54197;SDS011;40105;52.366;17.000;2023-02-20T07:44:43;10.48;;;4.28;;
54197;SDS011;40105;52.366;17.000;2023-02-20T07:47:10;14.75;;;5.75;;
54197;SDS011;40105;52.366;17.000;2023-02-20T07:49:35;15.88;;;7.00;;
54197;SDS011;40105;52.366;17.000;2023-02-20T07:52:01;14.63;;;5.77;;
54197;SDS011;40105;52.366;17.000;2023-02-20T07:54:26;16.50;;;6.95;;
54197;SDS011;40105;52.366;17.000;2023-02-20T07:56:51;13.70;;;7.13;;
54197;SDS011;40105;52.366;17.000;2023-02-20T07:59:16;13.98;;;6.15;;
54197;SDS011;40105;52.366;17.000;2023-02-20T08:01:42;14.40;;;6.43;;
54197;SDS011;40105;52.366;17.000;2023-02-20T08:04:08;14.15;;;6.63;;
54197;SDS011;40105;52.366;17.000;2023-02-20T08:06:33;14.83;;;5.97;;
54197;SDS011;40105;52.366;17.000;2023-02-20T08:08:58;20.45;;;8.77;;
54197;SDS011;40105;52.366;17.000;2023-02-20T08:11:23;19.33;;;8.33;;
54197;SDS011;40105;52.366;17.000;2023-02-20T08:13:49;19.27;;;9.07;;
54197;SDS011;40105;52.366;17.000;2023-02-20T08:16:14;25.77;;;9.25;;
54197;SDS011;40105;52.366;17.000;2023-02-20T08:18:39;22.77;;;9.13;;
54197;SDS011;40105;52.366;17.000;2023-02-20T08:21:04;25.17;;;9.77;;
54197;SDS011;40105;52.366;17.000;2023-02-20T08:23:30;19.77;;;8.40;;
54197;SDS011;40105;52.366;17.000;2023-02-20T08:25:55;19.77;;;9.47;;
54197;SDS011;40105;52.366;17.000;2023-02-20T08:28:20;20.83;;;9.53;;
54197;SDS011;40105;52.366;17.000;2023-02-20T08:30:46;22.42;;;9.20;;
54197;SDS011;40105;52.366;17.000;2023-02-20T08:33:11;25.23;;;11.80;;
54197;SDS011;40105;52.366;17.000;2023-02-20T08:35:36;34.08;;;15.75;;
54197;SDS011;40105;52.366;17.000;2023-02-20T08:38:05;24.30;;;12.33;;
54197;SDS011;40105;52.366;17.000;2023-02-20T08:40:31;26.52;;;10.50;;
54197;SDS011;40105;52.366;17.000;2023-02-20T08:42:57;26.85;;;11.65;;
54197;SDS011;40105;52.366;17.000;2023-02-20T08:45:22;22.90;;;10.45;;
54197;SDS011;40105;52.366;17.000;2023-02-20T08:47:48;19.30;;;9.15;;
54197;SDS011;40105;52.366;17.000;2023-02-20T08:50:14;24.40;;;10.13;;
54197;SDS011;40105;52.366;17.000;2023-02-20T08:52:41;28.33;;;10.77;;
54197;SDS011;40105;52.366;17.000;2023-02-20T08:55:06;25.67;;;10.05;;
54197;SDS011;40105;52.366;17.000;2023-02-20T08:57:31;19.77;;;8.87;;
54197;SDS011;40105;52.366;17.000;2023-02-20T08:59:57;25.53;;;11.90;;
54197;SDS011;40105;52.366;17.000;2023-02-20T09:02:22;21.25;;;10.25;;
54197;SDS011;40105;52.366;17.000;2023-02-20T09:04:53;21.15;;;10.68;;
54197;SDS011;40105;52.366;17.000;2023-02-20T09:07:18;29.33;;;9.68;;
54197;SDS011;40105;52.366;17.000;2023-02-20T09:09:44;23.13;;;9.67;;
54197;SDS011;40105;52.366;17.000;2023-02-20T09:12:09;23.77;;;10.53;;
54197;SDS011;40105;52.366;17.000;2023-02-20T09:14:34;31.17;;;11.65;;
54197;SDS011;40105;52.366;17.000;2023-02-20T09:17:00;25.55;;;10.90;;
54197;SDS011;40105;52.366;17.000;2023-02-20T09:19:25;40.47;;;10.47;;
54197;SDS011;40105;52.366;17.000;2023-02-20T09:21:50;24.40;;;11.10;;
54197;SDS011;40105;52.366;17.000;2023-02-20T09:24:16;35.90;;;11.53;;
54197;SDS011;40105;52.366;17.000;2023-02-20T09:26:41;27.90;;;11.33;;
54197;SDS011;40105;52.366;17.000;2023-02-20T09:29:06;30.50;;;12.67;;
54197;SDS011;40105;52.366;17.000;2023-02-20T09:31:31;32.23;;;12.07;;
54197;SDS011;40105;52.366;17.000;2023-02-20T09:33:56;25.13;;;11.07;;
54197;SDS011;40105;52.366;17.000;2023-02-20T09:36:21;28.50;;;12.03;;
54197;SDS011;40105;52.366;17.000;2023-02-20T09:38:47;30.52;;;14.57;;
54197;SDS011;40105;52.366;17.000;2023-02-20T09:41:50;35.33;;;15.83;;
54197;SDS011;40105;52.366;17.000;2023-02-20T09:44:14;37.92;;;14.40;;
54197;SDS011;40105;52.366;17.000;2023-02-20T09:46:43;29.10;;;12.27;;
54197;SDS011;40105;52.366;17.000;2023-02-20T09:49:11;28.13;;;12.77;;
54197;SDS011;40105;52.366;17.000;2023-02-20T09:51:38;24.35;;;13.00;;
54197;SDS011;40105;52.366;17.000;2023-02-20T09:56:30;22.58;;;10.65;;
54197;SDS011;40105;52.366;17.000;2023-02-20T09:59:01;24.52;;;10.35;;
54197;SDS011;40105;52.366;17.000;2023-02-20T10:01:28;21.35;;;10.70;;
54197;SDS011;40105;52.366;17.000;2023-02-20T10:03:54;21.05;;;9.77;;
54197;SDS011;40105;52.366;17.000;2023-02-20T10:06:21;21.55;;;12.05;;
54197;SDS011;40105;52.366;17.000;2023-02-20T10:08:47;22.75;;;11.57;;
54197;SDS011;40105;52.366;17.000;2023-02-20T10:11:15;27.20;;;13.02;;
54197;SDS011;40105;52.366;17.000;2023-02-20T10:13:51;24.80;;;11.75;;
54197;SDS011;40105;52.366;17.000;2023-02-20T10:16:21;19.08;;;9.75;;
54197;SDS011;40105;52.366;17.000;2023-02-20T10:19:01;21.73;;;11.40;;
54197;SDS011;40105;52.366;17.000;2023-02-20T10:24:48;19.67;;;10.18;;
54197;SDS011;40105;52.366;17.000;2023-02-20T10:26:45;23.58;;;8.85;;
54197;SDS011;40105;52.366;17.000;2023-02-20T10:29:17;17.50;;;8.30;;
54197;SDS011;40105;52.366;17.000;2023-02-20T10:34:08;24.77;;;11.55;;
54197;SDS011;40105;52.366;17.000;2023-02-20T10:36:39;16.63;;;9.05;;
54197;SDS011;40105;52.366;17.000;2023-02-20T10:39:07;21.60;;;8.77;;
54197;SDS011;40105;52.366;17.000;2023-02-20T10:46:55;24.50;;;8.27;;
54197;SDS011;40105;52.366;17.000;2023-02-20T10:49:43;16.85;;;9.48;;
54197;SDS011;40105;52.366;17.000;2023-02-20T10:52:08;20.38;;;8.43;;
54197;SDS011;40105;52.366;17.000;2023-02-20T10:54:36;20.42;;;8.23;;
54197;SDS011;40105;52.366;17.000;2023-02-20T11:02:23;20.60;;;10.05;;
54197;SDS011;40105;52.366;17.000;2023-02-20T11:04:51;19.08;;;9.27;;
54197;SDS011;40105;52.366;17.000;2023-02-20T11:07:18;19.58;;;9.45;;
54197;SDS011;40105;52.366;17.000;2023-02-20T11:09:44;17.02;;;6.85;;
54197;SDS011;40105;52.366;17.000;2023-02-20T11:12:17;10.63;;;5.67;;
54197;SDS011;40105;52.366;17.000;2023-02-20T11:14:45;16.52;;;8.02;;
54197;SDS011;40105;52.366;17.000;2023-02-20T11:17:12;14.48;;;7.55;;
54197;SDS011;40105;52.366;17.000;2023-02-20T11:19:47;11.23;;;5.90;;
54197;SDS011;40105;52.366;17.000;2023-02-20T11:22:12;10.23;;;4.95;;
54197;SDS011;40105;52.366;17.000;2023-02-20T11:24:42;9.38;;;4.53;;
54197;SDS011;40105;52.366;17.000;2023-02-20T11:27:13;12.75;;;6.22;;
54197;SDS011;40105;52.366;17.000;2023-02-20T11:37:32;15.05;;;6.97;;
54197;SDS011;40105;52.366;17.000;2023-02-20T11:39:58;12.33;;;5.60;;
54197;SDS011;40105;52.366;17.000;2023-02-20T11:42:23;13.32;;;6.53;;
54197;SDS011;40105;52.366;17.000;2023-02-20T11:47:39;13.10;;;6.68;;
54197;SDS011;40105;52.366;17.000;2023-02-20T11:50:16;14.93;;;6.00;;
54197;SDS011;40105;52.366;17.000;2023-02-20T11:52:58;12.25;;;4.72;;
54197;SDS011;40105;52.366;17.000;2023-02-20T11:55:24;10.23;;;5.78;;
54197;SDS011;40105;52.366;17.000;2023-02-20T11:57:50;12.02;;;6.15;;
54197;SDS011;40105;52.366;17.000;2023-02-20T12:02:54;8.63;;;4.55;;
54197;SDS011;40105;52.366;17.000;2023-02-20T12:05:20;8.75;;;4.03;;
54197;SDS011;40105;52.366;17.000;2023-02-20T12:12:42;7.00;;;3.70;;
54197;SDS011;40105;52.366;17.000;2023-02-20T12:15:11;11.13;;;4.20;;
54197;SDS011;40105;52.366;17.000;2023-02-20T12:17:39;10.38;;;4.35;;
54197;SDS011;40105;52.366;17.000;2023-02-20T12:20:14;8.18;;;4.05;;
54197;SDS011;40105;52.366;17.000;2023-02-20T12:22:43;9.95;;;3.25;;
54197;SDS011;40105;52.366;17.000;2023-02-20T12:25:20;9.00;;;3.00;;
54197;SDS011;40105;52.366;17.000;2023-02-20T12:30:39;13.93;;;3.90;;
54197;SDS011;40105;52.366;17.000;2023-02-20T12:33:25;7.35;;;3.65;;
54197;SDS011;40105;52.366;17.000;2023-02-20T12:35:58;11.98;;;3.50;;
54197;SDS011;40105;52.366;17.000;2023-02-20T12:38:31;12.98;;;8.13;;
54197;SDS011;40105;52.366;17.000;2023-02-20T12:50:57;13.37;;;3.97;;
54197;SDS011;40105;52.366;17.000;2023-02-20T12:58:46;9.52;;;3.42;;
54197;SDS011;40105;52.366;17.000;2023-02-20T13:01:12;9.15;;;3.47;;
54197;SDS011;40105;52.366;17.000;2023-02-20T13:03:39;9.10;;;3.08;;
54197;SDS011;40105;52.366;17.000;2023-02-20T13:06:05;7.30;;;3.38;;
54197;SDS011;40105;52.366;17.000;2023-02-20T13:08:44;6.25;;;2.75;;
54197;SDS011;40105;52.366;17.000;2023-02-20T13:11:12;6.43;;;2.45;;
54197;SDS011;40105;52.366;17.000;2023-02-20T13:13:49;7.63;;;3.75;;
54197;SDS011;40105;52.366;17.000;2023-02-20T13:16:23;7.75;;;2.75;;
54197;SDS011;40105;52.366;17.000;2023-02-20T13:18:53;7.68;;;4.22;;
54197;SDS011;40105;52.366;17.000;2023-02-20T13:21:22;11.00;;;3.85;;
54197;SDS011;40105;52.366;17.000;2023-02-20T13:23:47;12.15;;;4.00;;
54197;SDS011;40105;52.366;17.000;2023-02-20T13:28:51;6.72;;;3.30;;
54197;SDS011;40105;52.366;17.000;2023-02-20T13:31:38;6.70;;;3.10;;
54197;SDS011;40105;52.366;17.000;2023-02-20T13:36:52;5.43;;;2.78;;
54197;SDS011;40105;52.366;17.000;2023-02-20T13:46:59;8.82;;;3.97;;
54197;SDS011;40105;52.366;17.000;2023-02-20T13:54:53;9.30;;;3.38;;
54197;SDS011;40105;52.366;17.000;2023-02-20T13:57:18;7.78;;;3.05;;
54197;SDS011;40105;52.366;17.000;2023-02-20T13:59:45;8.93;;;3.43;;
54197;SDS011;40105;52.366;17.000;2023-02-20T14:02:18;10.27;;;4.90;;
54197;SDS011;40105;52.366;17.000;2023-02-20T14:05:03;6.60;;;3.30;;
54197;SDS011;40105;52.366;17.000;2023-02-20T14:07:31;6.53;;;3.30;;
54197;SDS011;40105;52.366;17.000;2023-02-20T14:10:04;7.25;;;3.95;;
54197;SDS011;40105;52.366;17.000;2023-02-20T14:12:29;9.40;;;3.95;;
54197;SDS011;40105;52.366;17.000;2023-02-20T14:14:55;6.90;;;3.65;;
54197;SDS011;40105;52.366;17.000;2023-02-20T14:17:21;9.23;;;3.75;;
54197;SDS011;40105;52.366;17.000;2023-02-20T14:19:48;8.68;;;3.17;;
54197;SDS011;40105;52.366;17.000;2023-02-20T14:22:24;8.77;;;3.28;;
54197;SDS011;40105;52.366;17.000;2023-02-20T14:27:27;6.35;;;3.65;;
54197;SDS011;40105;52.366;17.000;2023-02-20T14:30:06;7.38;;;3.40;;
54197;SDS011;40105;52.366;17.000;2023-02-20T14:32:32;7.50;;;3.53;;
54197;SDS011;40105;52.366;17.000;2023-02-20T14:35:15;8.63;;;3.65;;
54197;SDS011;40105;52.366;17.000;2023-02-20T14:37:52;6.90;;;3.58;;
54197;SDS011;40105;52.366;17.000;2023-02-20T14:40:30;9.27;;;3.88;;
54197;SDS011;40105;52.366;17.000;2023-02-20T14:43:00;6.32;;;3.75;;
54197;SDS011;40105;52.366;17.000;2023-02-20T14:45:26;10.05;;;4.20;;
54197;SDS011;40105;52.366;17.000;2023-02-20T14:47:53;5.88;;;2.90;;
54197;SDS011;40105;52.366;17.000;2023-02-20T14:50:25;8.68;;;3.55;;
54197;SDS011;40105;52.366;17.000;2023-02-20T14:53:01;8.48;;;3.17;;
54197;SDS011;40105;52.366;17.000;2023-02-20T14:55:27;8.93;;;3.65;;
54197;SDS011;40105;52.366;17.000;2023-02-20T14:57:52;8.67;;;3.30;;
54197;SDS011;40105;52.366;17.000;2023-02-20T15:02:45;6.68;;;3.35;;
54197;SDS011;40105;52.366;17.000;2023-02-20T15:05:13;6.05;;;2.65;;
54197;SDS011;40105;52.366;17.000;2023-02-20T15:07:40;17.63;;;4.53;;
54197;SDS011;40105;52.366;17.000;2023-02-20T15:10:22;8.68;;;3.45;;
54197;SDS011;40105;52.366;17.000;2023-02-20T15:12:54;9.73;;;3.08;;
54197;SDS011;40105;52.366;17.000;2023-02-20T15:15:21;13.18;;;3.45;;
54197;SDS011;40105;52.366;17.000;2023-02-20T15:17:46;6.65;;;3.42;;
54197;SDS011;40105;52.366;17.000;2023-02-20T15:25:39;6.70;;;3.60;;
54197;SDS011;40105;52.366;17.000;2023-02-20T15:33:25;9.77;;;4.22;;
54197;SDS011;40105;52.366;17.000;2023-02-20T15:35:51;8.38;;;4.47;;
54197;SDS011;40105;52.366;17.000;2023-02-20T15:38:16;6.63;;;3.30;;
54197;SDS011;40105;52.366;17.000;2023-02-20T15:40:41;9.23;;;3.83;;
54197;SDS011;40105;52.366;17.000;2023-02-20T15:43:12;11.27;;;4.20;;
54197;SDS011;40105;52.366;17.000;2023-02-20T15:45:38;7.45;;;3.28;;
54197;SDS011;40105;52.366;17.000;2023-02-20T15:48:04;5.15;;;3.53;;
54197;SDS011;40105;52.366;17.000;2023-02-20T15:50:29;8.65;;;4.68;;
54197;SDS011;40105;52.366;17.000;2023-02-20T15:52:54;10.30;;;4.03;;
54197;SDS011;40105;52.366;17.000;2023-02-20T15:55:21;10.23;;;4.70;;
54197;SDS011;40105;52.366;17.000;2023-02-20T15:57:47;8.25;;;4.13;;
54197;SDS011;40105;52.366;17.000;2023-02-20T16:00:22;7.03;;;3.15;;
54197;SDS011;40105;52.366;17.000;2023-02-20T16:02:49;8.85;;;4.22;;
54197;SDS011;40105;52.366;17.000;2023-02-20T16:05:14;14.27;;;4.40;;
54197;SDS011;40105;52.366;17.000;2023-02-20T16:07:39;13.05;;;5.00;;
54197;SDS011;40105;52.366;17.000;2023-02-20T16:10:05;9.93;;;4.50;;
54197;SDS011;40105;52.366;17.000;2023-02-20T16:12:30;10.18;;;4.22;;
54197;SDS011;40105;52.366;17.000;2023-02-20T16:14:57;14.93;;;5.18;;
54197;SDS011;40105;52.366;17.000;2023-02-20T16:17:23;33.85;;;4.10;;
54197;SDS011;40105;52.366;17.000;2023-02-20T16:19:49;8.02;;;4.63;;
54197;SDS011;40105;52.366;17.000;2023-02-20T16:22:14;12.30;;;4.60;;
54197;SDS011;40105;52.366;17.000;2023-02-20T16:24:39;8.20;;;3.87;;